createdAt,value
2019-05-05T00:02:01.037Z,87.86
2019-05-05T00:04:54.538Z,87.95
2019-05-05T00:07:31.450Z,88.30
2019-05-05T00:10:04.587Z,88.07
2019-05-05T00:12:51.693Z,88.21
2019-05-05T00:15:48.200Z,87.74
2019-05-05T00:18:25.260Z,87.82
2019-05-05T00:20:57.880Z,87.16
2019-05-05T00:23:29.784Z,87.91
2019-05-05T00:26:04.264Z,87.97
2019-05-05T00:28:35.799Z,88.33
2019-05-05T00:31:07.439Z,87.83
2019-05-05T00:33:39.015Z,87.62
2019-05-05T00:36:10.439Z,88.08
2019-05-05T00:38:41.976Z,88.39
2019-05-05T00:41:14.843Z,87.59
2019-05-05T00:43:48.163Z,87.50
2019-05-05T00:46:25.193Z,87.50
2019-05-05T00:48:56.624Z,87.62
2019-05-05T00:51:28.239Z,88.04
2019-05-05T00:53:59.882Z,88.63
2019-05-05T00:56:31.176Z,88.17
2019-05-05T00:59:06.171Z,88.39
2019-05-05T01:02:00.046Z,88.25
2019-05-05T01:04:41.574Z,88.48
2019-05-05T01:07:14.311Z,88.05
2019-05-05T01:09:46.847Z,88.79
2019-05-05T01:12:18.252Z,88.55
2019-05-05T01:14:49.791Z,88.82
2019-05-05T01:17:21.325Z,89.12
2019-05-05T01:20:01.191Z,88.42
2019-05-05T01:22:26.113Z,88.65
2019-05-05T01:24:57.547Z,88.95
2019-05-05T01:27:29.044Z,89.48
2019-05-05T01:30:00.863Z,88.85
2019-05-05T01:32:36.247Z,88.82
2019-05-05T01:35:08.368Z,88.75
2019-05-05T01:37:45.272Z,88.85
2019-05-05T01:40:36.433Z,89.17
2019-05-05T01:43:07.935Z,88.55
2019-05-05T01:45:39.636Z,88.43
2019-05-05T01:48:11.069Z,88.72
2019-05-05T01:50:42.536Z,88.31
2019-05-05T01:53:15.225Z,87.72
2019-05-05T01:55:47.318Z,88.52
2019-05-05T01:58:19.450Z,88.34
2019-05-05T02:00:51.164Z,88.71
2019-05-05T02:03:24.366Z,88.41
2019-05-05T02:05:56.192Z,88.42
2019-05-05T02:08:27.649Z,88.91
2019-05-05T02:10:59.156Z,88.62
2019-05-05T02:13:30.818Z,88.11
2019-05-05T02:16:04.396Z,88.71
2019-05-05T02:18:35.639Z,89.24
2019-05-05T02:21:08.610Z,88.89
2019-05-05T02:23:40.105Z,88.51
2019-05-05T02:26:11.617Z,89.24
2019-05-05T02:28:58.919Z,88.41
2019-05-05T02:31:49.474Z,88.48
2019-05-05T02:34:21.091Z,89.26
2019-05-05T02:36:52.553Z,89.83
2019-05-05T02:39:23.943Z,88.97
2019-05-05T02:41:56.586Z,88.95
2019-05-05T02:44:31.307Z,89.27
2019-05-05T02:47:18.427Z,88.35
2019-05-05T02:49:54.687Z,89.10
2019-05-05T02:52:25.083Z,89.21
2019-05-05T02:54:57.007Z,88.39
2019-05-05T02:57:29.052Z,89.31
2019-05-05T03:00:09.185Z,89.49
2019-05-05T03:02:40.751Z,89.70
2019-05-05T03:05:17.439Z,90.09
2019-05-05T03:07:49.406Z,89.49
2019-05-05T03:10:21.766Z,88.99
2019-05-05T03:12:54.454Z,89.46
2019-05-05T03:15:44.038Z,89.32
2019-05-05T03:18:16.117Z,90.05
2019-05-05T03:21:00.802Z,89.67
2019-05-05T03:23:21.719Z,89.75
2019-05-05T03:25:54.580Z,89.76
2019-05-05T03:28:28.648Z,90.01
2019-05-05T03:31:00.369Z,90.22
2019-05-05T03:33:34.987Z,89.57
2019-05-05T03:36:06.117Z,89.85
2019-05-05T03:38:38.616Z,88.99
2019-05-05T03:41:15.575Z,89.11
2019-05-05T03:44:07.774Z,89.58
2019-05-05T03:46:39.826Z,89.70
2019-05-05T03:49:14.010Z,89.76
2019-05-05T03:51:46.108Z,89.78
2019-05-05T03:54:18.766Z,89.62
2019-05-05T03:56:54.529Z,89.10
2019-05-05T03:59:26.030Z,89.25
2019-05-05T04:02:14.186Z,89.48
2019-05-05T04:04:49.766Z,89.82
2019-05-05T04:07:21.398Z,89.10
2019-05-05T04:09:54.232Z,89.45
2019-05-05T04:12:26.578Z,89.37
2019-05-05T04:15:00.120Z,89.62
2019-05-05T04:18:05.545Z,89.63
2019-05-05T04:20:44.042Z,90.07
2019-05-05T04:23:15.039Z,89.34
2019-05-05T04:25:46.722Z,89.98
2019-05-05T04:28:18.128Z,89.33
2019-05-05T04:30:49.759Z,88.53
2019-05-05T04:33:23.520Z,88.56
2019-05-05T04:35:54.658Z,88.64
2019-05-05T04:38:26.047Z,89.19
2019-05-05T04:40:57.385Z,89.20
2019-05-05T04:43:29.061Z,88.56
2019-05-05T04:46:00.314Z,88.62
2019-05-05T04:48:46.641Z,87.97
2019-05-05T04:51:22.055Z,88.68
2019-05-05T04:54:11.192Z,87.58
2019-05-05T04:56:44.690Z,87.67
2019-05-05T04:59:15.851Z,88.74
2019-05-05T05:01:48.756Z,88.15
2019-05-05T05:04:48.357Z,86.73
2019-05-05T05:07:20.078Z,86.26
2019-05-05T05:09:53.868Z,85.56
2019-05-05T05:12:25.146Z,85.99
2019-05-05T05:14:56.681Z,84.19
2019-05-05T05:17:39.571Z,84.83
2019-05-05T05:20:11.312Z,84.50
2019-05-05T05:22:44.007Z,85.28
2019-05-05T05:25:16.843Z,83.00
2019-05-05T05:27:48.381Z,83.65
2019-05-05T05:30:20.155Z,82.82
2019-05-05T05:32:53.662Z,84.03
2019-05-05T05:35:24.664Z,83.35
2019-05-05T05:37:57.757Z,81.59
2019-05-05T05:40:35.621Z,80.27
2019-05-05T05:43:09.042Z,80.96
2019-05-05T05:45:54.160Z,81.96
2019-05-05T05:48:34.232Z,80.14
2019-05-05T05:51:14.674Z,79.96
2019-05-05T05:53:46.112Z,77.68
2019-05-05T05:56:17.392Z,77.29
2019-05-05T05:58:49.009Z,77.75
2019-05-05T06:01:21.432Z,78.91
2019-05-05T06:03:53.628Z,77.82
2019-05-05T06:06:25.027Z,77.44
2019-05-05T06:08:56.309Z,76.57
2019-05-05T06:11:27.657Z,77.13
2019-05-05T06:13:59.465Z,75.96
2019-05-05T06:16:30.805Z,75.69
2019-05-05T06:19:03.619Z,75.47
2019-05-05T06:21:35.333Z,75.46
2019-05-05T06:24:06.802Z,76.46
2019-05-05T06:26:38.158Z,74.69
2019-05-05T06:29:09.605Z,75.27
2019-05-05T06:31:41.075Z,75.15
2019-05-05T06:34:13.990Z,74.58
2019-05-05T06:36:45.671Z,74.24
2019-05-05T06:39:17.588Z,74.74
2019-05-05T06:42:06.742Z,73.38
2019-05-05T06:44:41.751Z,74.99
2019-05-05T06:47:19.661Z,73.68
2019-05-05T06:49:50.984Z,75.20
2019-05-05T06:52:24.732Z,73.39
2019-05-05T06:54:56.060Z,72.97
2019-05-05T06:57:28.172Z,74.16
2019-05-05T06:59:59.737Z,74.08
2019-05-05T07:02:31.181Z,74.05
2019-05-05T07:05:04.062Z,71.94
2019-05-05T07:07:35.823Z,71.29
2019-05-05T07:10:07.693Z,71.83
2019-05-05T07:12:39.327Z,72.47
2019-05-05T07:15:10.876Z,70.92
2019-05-05T07:17:44.129Z,74.97
2019-05-05T07:20:15.836Z,72.50
2019-05-05T07:23:01.312Z,71.24
2019-05-05T07:25:24.209Z,71.76
2019-05-05T07:27:55.519Z,70.15
2019-05-05T07:30:33.599Z,70.44
2019-05-05T07:33:05.222Z,68.80
2019-05-05T07:36:19.129Z,68.51
2019-05-05T07:38:50.447Z,68.00
2019-05-05T07:41:23.488Z,69.69
2019-05-05T07:43:55.066Z,69.76
2019-05-05T07:46:30.432Z,68.14
2019-05-05T07:49:03.741Z,66.49
2019-05-05T07:51:34.962Z,65.70
2019-05-05T07:54:08.037Z,68.12
2019-05-05T07:56:39.565Z,66.49
2019-05-05T07:59:10.902Z,67.29
2019-05-05T08:01:45.813Z,67.32
2019-05-05T08:04:15.600Z,63.83
2019-05-05T08:06:46.893Z,64.09
2019-05-05T08:09:21.564Z,64.04
2019-05-05T08:11:51.496Z,62.83
2019-05-05T08:14:24.588Z,61.70
2019-05-05T08:17:06.255Z,59.82
2019-05-05T08:19:47.747Z,61.55
2019-05-05T08:22:19.160Z,63.65
2019-05-05T08:25:03.991Z,65.37
2019-05-05T08:27:53.910Z,64.24
2019-05-05T08:30:48.099Z,64.52
2019-05-05T08:33:19.495Z,63.87
2019-05-05T08:35:50.844Z,67.59
2019-05-05T08:38:24.111Z,64.27
2019-05-05T08:40:55.517Z,64.78
2019-05-05T08:43:26.887Z,63.56
2019-05-05T08:45:58.252Z,65.04
2019-05-05T08:48:30.002Z,64.26
2019-05-05T08:51:01.393Z,65.61
2019-05-05T08:53:44.122Z,63.74
2019-05-05T08:56:06.755Z,64.02
2019-05-05T08:58:38.480Z,64.78
2019-05-05T09:01:10.547Z,64.26
2019-05-05T09:03:44.152Z,63.67
2019-05-05T09:06:15.124Z,62.30
2019-05-05T09:08:46.561Z,62.31
2019-05-05T09:11:17.935Z,61.82
2019-05-05T09:13:53.556Z,62.49
2019-05-05T09:16:24.211Z,62.35
2019-05-05T09:19:04.129Z,62.40
2019-05-05T09:21:35.517Z,60.05
2019-05-05T09:24:24.949Z,63.00
2019-05-05T09:27:06.755Z,60.57
2019-05-05T09:29:40.599Z,61.61
2019-05-05T09:32:13.888Z,60.83
2019-05-05T09:34:45.003Z,60.56
2019-05-05T09:37:16.426Z,59.82
2019-05-05T09:39:47.871Z,60.61
2019-05-05T09:42:19.536Z,59.46
2019-05-05T09:44:51.037Z,57.73
2019-05-05T09:47:24.046Z,54.13
2019-05-05T09:49:55.959Z,54.58
2019-05-05T09:52:27.350Z,54.31
2019-05-05T09:54:58.915Z,51.66
2019-05-05T09:57:30.337Z,53.96
2019-05-05T10:00:14.074Z,53.60
2019-05-05T10:02:45.542Z,54.46
2019-05-05T10:05:17.545Z,51.80
2019-05-05T10:07:49.338Z,54.53
2019-05-05T10:10:20.825Z,53.63
2019-05-05T10:12:53.003Z,52.75
2019-05-05T10:15:25.720Z,53.82
2019-05-05T10:17:57.105Z,56.25
2019-05-05T10:20:28.460Z,57.95
2019-05-05T10:22:59.703Z,58.44
2019-05-05T10:25:38.783Z,59.63
2019-05-05T10:28:10.332Z,59.57
2019-05-05T10:30:41.997Z,61.02
2019-05-05T10:33:14.283Z,59.76
2019-05-05T10:35:45.770Z,59.04
2019-05-05T10:38:17.103Z,57.53
2019-05-05T10:40:48.845Z,56.83
2019-05-05T10:43:20.198Z,57.36
2019-05-05T10:45:54.547Z,57.14
2019-05-05T10:48:25.413Z,59.43
2019-05-05T10:50:56.668Z,57.87
2019-05-05T10:53:28.011Z,60.14
2019-05-05T10:55:59.566Z,61.46
2019-05-05T10:58:31.181Z,64.80
2019-05-05T11:01:04.281Z,65.68
2019-05-05T11:03:37.536Z,63.79
2019-05-05T11:06:09.336Z,65.97
2019-05-05T11:08:41.011Z,60.98
2019-05-05T11:11:13.700Z,60.78
2019-05-05T11:13:48.090Z,60.60
2019-05-05T11:16:19.499Z,58.71
2019-05-05T11:18:51.067Z,56.18
2019-05-05T11:21:23.693Z,55.85
2019-05-05T11:23:56.181Z,54.15
2019-05-05T11:26:27.524Z,55.04
2019-05-05T11:28:59.037Z,52.55
2019-05-05T11:31:30.515Z,52.72
2019-05-05T11:34:18.960Z,52.32
2019-05-05T11:37:11.979Z,53.79
2019-05-05T11:39:44.555Z,53.27
2019-05-05T11:42:16.039Z,53.31
2019-05-05T11:44:47.678Z,54.40
2019-05-05T11:47:20.067Z,55.04
2019-05-05T11:49:56.113Z,54.42
2019-05-05T11:52:25.950Z,56.25
2019-05-05T11:55:08.904Z,55.61
2019-05-05T11:57:31.574Z,52.57
2019-05-05T12:00:03.840Z,52.42
2019-05-05T12:02:37.308Z,53.70
2019-05-05T12:05:09.003Z,52.88
2019-05-05T12:07:40.669Z,53.16
2019-05-05T12:10:31.495Z,51.85
2019-05-05T12:13:04.304Z,51.12
2019-05-05T12:15:35.645Z,52.35
2019-05-05T12:18:08.479Z,49.55
2019-05-05T12:20:41.278Z,49.95
2019-05-05T12:23:12.635Z,50.11
2019-05-05T12:25:59.533Z,47.17
2019-05-05T12:28:49.718Z,46.12
2019-05-05T12:31:24.873Z,47.37
2019-05-05T12:33:56.869Z,49.71
2019-05-05T12:36:28.222Z,46.81
2019-05-05T12:39:24.953Z,48.61
2019-05-05T12:42:00.461Z,46.79
2019-05-05T12:44:42.293Z,50.20
2019-05-05T12:47:30.990Z,53.21
2019-05-05T12:50:02.633Z,54.21
2019-05-05T12:52:34.455Z,54.98
2019-05-05T12:55:06.612Z,56.53
2019-05-05T12:57:39.004Z,57.23
2019-05-05T13:00:14.572Z,56.30
2019-05-05T13:02:46.138Z,55.20
2019-05-05T13:05:17.614Z,55.86
2019-05-05T13:07:48.965Z,56.91
2019-05-05T13:10:24.372Z,55.32
2019-05-05T13:12:57.034Z,56.19
2019-05-05T13:15:28.509Z,54.81
2019-05-05T13:18:00.083Z,53.65
2019-05-05T13:20:47.948Z,52.14
2019-05-05T13:23:27.071Z,53.15
2019-05-05T13:26:04.392Z,51.46
2019-05-05T13:28:36.062Z,53.30
2019-05-05T13:31:07.420Z,51.96
2019-05-05T13:33:38.990Z,53.13
2019-05-05T13:36:10.352Z,52.72
2019-05-05T13:38:43.670Z,52.83
2019-05-05T13:41:15.021Z,52.05
2019-05-05T13:43:47.543Z,53.00
2019-05-05T13:46:24.738Z,50.88
2019-05-05T13:49:15.491Z,50.57
2019-05-05T13:51:48.159Z,52.69
2019-05-05T13:54:20.005Z,52.77
2019-05-05T13:56:52.440Z,52.31
2019-05-05T13:59:25.620Z,52.11
2019-05-05T14:01:57.777Z,50.44
2019-05-05T14:04:29.479Z,50.68
2019-05-05T14:07:04.023Z,53.61
2019-05-05T14:09:38.019Z,50.95
2019-05-05T14:12:09.598Z,50.54
2019-05-05T14:14:41.004Z,47.81
2019-05-05T14:17:17.473Z,49.40
2019-05-05T14:20:04.557Z,49.67
2019-05-05T14:22:25.126Z,48.22
2019-05-05T14:25:04.235Z,49.03
2019-05-05T14:27:35.265Z,47.02
2019-05-05T14:30:20.358Z,47.36
2019-05-05T14:32:51.842Z,47.61
2019-05-05T14:35:39.267Z,45.30
2019-05-05T14:38:15.374Z,47.00
2019-05-05T14:40:47.199Z,46.08
2019-05-05T14:43:18.796Z,44.48
2019-05-05T14:45:50.251Z,45.57
2019-05-05T14:48:21.665Z,45.63
2019-05-05T14:50:54.376Z,47.12
2019-05-05T14:53:25.745Z,45.75
2019-05-05T14:55:57.200Z,48.31
2019-05-05T14:58:29.083Z,45.60
2019-05-05T15:01:04.514Z,45.44
2019-05-05T15:03:36.427Z,45.12
2019-05-05T15:06:24.678Z,47.35
2019-05-05T15:09:03.908Z,48.85
2019-05-05T15:12:11.275Z,48.68
2019-05-05T15:14:43.939Z,50.36
2019-05-05T15:17:15.498Z,51.19
2019-05-05T15:19:46.885Z,51.13
2019-05-05T15:22:18.269Z,52.15
2019-05-05T15:24:49.592Z,50.84
2019-05-05T15:27:20.926Z,50.34
2019-05-05T15:29:54.113Z,49.90
2019-05-05T15:32:25.712Z,52.70
2019-05-05T15:34:57.337Z,51.55
2019-05-05T15:37:28.596Z,52.74
2019-05-05T15:39:59.945Z,51.63
2019-05-05T15:42:33.393Z,51.96
2019-05-05T15:45:05.056Z,51.83
2019-05-05T15:47:36.826Z,51.63
2019-05-05T15:50:09.099Z,52.67
2019-05-05T15:52:41.022Z,52.68
2019-05-05T15:55:14.373Z,53.01
2019-05-05T15:57:45.956Z,51.75
2019-05-05T16:00:18.572Z,50.88
2019-05-05T16:02:49.998Z,52.06
2019-05-05T16:05:24.150Z,51.21
2019-05-05T16:07:55.107Z,52.93
2019-05-05T16:10:26.455Z,51.45
2019-05-05T16:12:57.754Z,52.28
2019-05-05T16:15:51.288Z,51.11
2019-05-05T16:18:31.155Z,49.95
2019-05-05T16:21:29.827Z,48.16
2019-05-05T16:24:03.830Z,47.67
2019-05-05T16:26:35.304Z,47.96
2019-05-05T16:29:06.829Z,46.88
2019-05-05T16:31:38.546Z,47.91
2019-05-05T16:34:10.124Z,47.63
2019-05-05T16:36:41.574Z,47.55
2019-05-05T16:39:13.789Z,49.42
2019-05-05T16:41:46.481Z,48.63
2019-05-05T16:44:17.811Z,49.07
2019-05-05T16:46:49.167Z,48.76
2019-05-05T16:49:20.526Z,49.43
2019-05-05T16:52:00.773Z,48.71
2019-05-05T16:54:37.135Z,48.92
2019-05-05T16:57:08.860Z,47.97
2019-05-05T16:59:40.300Z,47.33
2019-05-05T17:02:13.841Z,48.76
2019-05-05T17:04:44.666Z,47.28
2019-05-05T17:07:17.853Z,48.05
2019-05-05T17:09:49.273Z,49.04
2019-05-05T17:12:21.739Z,47.85
2019-05-05T17:15:11.058Z,49.63
2019-05-05T17:18:32.552Z,47.88
2019-05-05T17:21:07.481Z,49.79
2019-05-05T17:23:38.802Z,48.68
2019-05-05T17:26:10.217Z,49.73
2019-05-05T17:28:41.912Z,50.40
2019-05-05T17:31:13.583Z,51.21
2019-05-05T17:33:49.505Z,52.89
2019-05-05T17:36:21.007Z,50.92
2019-05-05T17:38:54.383Z,52.74
2019-05-05T17:41:44.734Z,52.41
2019-05-05T17:44:26.248Z,52.06
2019-05-05T17:47:18.186Z,51.95
2019-05-05T17:49:58.987Z,54.23
2019-05-05T17:52:55.424Z,52.71
2019-05-05T17:55:33.656Z,53.75
2019-05-05T17:58:05.380Z,53.79
2019-05-05T18:00:46.692Z,54.53
2019-05-05T18:03:17.661Z,53.63
2019-05-05T18:06:20.252Z,54.59
2019-05-05T18:08:59.424Z,55.17
2019-05-05T18:11:57.203Z,55.98
2019-05-05T18:14:29.393Z,57.59
2019-05-05T18:17:01.118Z,57.20
2019-05-05T18:19:34.033Z,58.23
2019-05-05T18:22:05.761Z,57.25
2019-05-05T18:24:37.333Z,60.23
2019-05-05T18:27:09.357Z,62.04
2019-05-05T18:29:43.457Z,62.47
2019-05-05T18:32:14.430Z,63.49
2019-05-05T18:34:46.070Z,65.01
2019-05-05T18:37:17.634Z,65.52
2019-05-05T18:39:48.997Z,65.78
2019-05-05T18:42:24.404Z,66.84
2019-05-05T18:45:03.725Z,65.71
2019-05-05T18:47:36.401Z,67.51
2019-05-05T18:50:08.299Z,68.17
2019-05-05T18:52:39.685Z,68.67
2019-05-05T18:55:11.248Z,69.50
2019-05-05T18:57:43.495Z,70.00
2019-05-05T19:00:18.551Z,70.56
2019-05-05T19:02:54.122Z,71.33
2019-05-05T19:05:47.521Z,70.13
2019-05-05T19:08:51.846Z,70.26
2019-05-05T19:11:12.931Z,69.80
2019-05-05T19:13:44.777Z,70.56
2019-05-05T19:16:16.192Z,71.29
2019-05-05T19:18:47.763Z,71.37
2019-05-05T19:21:41.185Z,73.41
2019-05-05T19:24:14.479Z,73.16
2019-05-05T19:26:45.983Z,73.41
2019-05-05T19:29:17.379Z,74.44
2019-05-05T19:31:48.820Z,73.64
2019-05-05T19:34:20.681Z,74.40
2019-05-05T19:36:54.486Z,74.63
2019-05-05T19:39:25.092Z,74.35
2019-05-05T19:41:56.765Z,75.26
2019-05-05T19:44:28.229Z,76.94
2019-05-05T19:47:18.419Z,77.30
2019-05-05T19:49:56.184Z,78.61
2019-05-05T19:52:27.724Z,78.03
2019-05-05T19:54:59.625Z,76.95
2019-05-05T19:57:31.060Z,78.39
2019-05-05T20:00:03.967Z,78.56
2019-05-05T20:02:37.378Z,76.91
2019-05-05T20:05:09.151Z,74.85
2019-05-05T20:07:40.598Z,76.48
2019-05-05T20:10:12.188Z,75.05
2019-05-05T20:12:44.887Z,74.63
2019-05-05T20:15:23.754Z,73.45
2019-05-05T20:17:55.294Z,74.97
2019-05-05T20:20:26.695Z,74.66
2019-05-05T20:22:58.311Z,73.90
2019-05-05T20:25:29.826Z,76.25
2019-05-05T20:28:01.382Z,75.76
2019-05-05T20:30:34.239Z,75.41
2019-05-05T20:33:10.754Z,76.00
2019-05-05T20:35:48.043Z,76.42
2019-05-05T20:38:44.459Z,73.55
2019-05-05T20:41:17.067Z,74.02
2019-05-05T20:43:48.545Z,74.09
2019-05-05T20:46:20.059Z,75.43
2019-05-05T20:48:51.512Z,75.70
2019-05-05T20:51:24.251Z,76.74
2019-05-05T20:53:55.765Z,74.12
2019-05-05T20:56:27.261Z,73.27
2019-05-05T20:58:58.514Z,74.56
2019-05-05T21:01:30.099Z,73.37
2019-05-05T21:04:01.655Z,73.52
2019-05-05T21:06:34.223Z,73.67
2019-05-05T21:09:07.636Z,73.48
2019-05-05T21:11:39.498Z,73.43
2019-05-05T21:14:11.099Z,73.29
2019-05-05T21:16:44.063Z,75.33
2019-05-05T21:19:15.587Z,76.48
2019-05-05T21:21:50.311Z,76.35
2019-05-05T21:24:23.804Z,77.17
2019-05-05T21:27:00.560Z,76.61
2019-05-05T21:29:39.530Z,75.47
2019-05-05T21:32:04.984Z,76.94
2019-05-05T21:34:36.804Z,77.23
2019-05-05T21:37:08.202Z,78.60
2019-05-05T21:39:39.441Z,76.90
2019-05-05T21:42:11.185Z,77.10
2019-05-05T21:44:44.290Z,77.67
2019-05-05T21:47:15.586Z,77.71
2019-05-05T21:49:47.148Z,77.74
2019-05-05T21:52:47.046Z,78.08
2019-05-05T21:55:33.936Z,77.71
2019-05-05T21:58:16.818Z,76.43
2019-05-05T22:01:26.613Z,75.85
2019-05-05T22:03:55.649Z,77.03
2019-05-05T22:06:26.951Z,77.20
2019-05-05T22:08:58.265Z,77.19
2019-05-05T22:11:29.626Z,76.37
2019-05-05T22:14:00.890Z,75.78
2019-05-05T22:16:35.284Z,76.06
2019-05-05T22:19:06.315Z,76.68
2019-05-05T22:21:51.382Z,75.87
2019-05-05T22:24:23.396Z,75.91
2019-05-05T22:26:54.908Z,75.59
2019-05-05T22:29:26.340Z,77.07
2019-05-05T22:31:57.713Z,77.62
2019-05-05T22:34:29.153Z,76.84
2019-05-05T22:37:00.566Z,76.84
2019-05-05T22:39:33.777Z,77.72
2019-05-05T22:42:05.457Z,77.71
2019-05-05T22:44:37.076Z,76.77
2019-05-05T22:47:08.528Z,77.75
2019-05-05T22:49:39.789Z,79.32
2019-05-05T22:52:11.239Z,77.17
2019-05-05T22:54:44.385Z,77.29
2019-05-05T22:57:16.047Z,76.97
2019-05-05T22:59:47.880Z,79.25
2019-05-05T23:02:20.981Z,78.52
2019-05-05T23:04:58.577Z,77.62
2019-05-05T23:07:31.704Z,76.62
2019-05-05T23:10:04.574Z,75.34
2019-05-05T23:12:36.105Z,75.16
2019-05-05T23:15:08.914Z,75.96
2019-05-05T23:17:47.338Z,75.25
2019-05-05T23:21:10.526Z,76.98
2019-05-05T23:24:19.226Z,77.19
2019-05-05T23:26:54.430Z,77.21
2019-05-05T23:29:26.614Z,78.82
2019-05-05T23:31:58.180Z,79.18
2019-05-05T23:34:29.598Z,79.00
2019-05-05T23:37:01.131Z,79.57
2019-05-05T23:39:32.528Z,79.11
2019-05-05T23:42:04.189Z,77.97
2019-05-05T23:44:35.465Z,77.40
2019-05-05T23:47:06.782Z,76.71
2019-05-05T23:49:38.038Z,76.50
2019-05-05T23:52:09.434Z,76.37
2019-05-05T23:54:40.736Z,76.16
2019-05-05T23:57:13.787Z,76.33
2019-05-05T23:59:45.083Z,76.80
